sensor_id;sensor_type;location;lat;lon;timestamp;temperature;humidity
39951;DHT22;25629;51.444;-2.606;2023-01-08T00:00:47;9.30;99.90
39951;DHT22;25629;51.444;-2.606;2023-01-08T00:03:13;9.20;99.90
39951;DHT22;25629;51.444;-2.606;2023-01-08T00:05:38;9.20;99.90
39951;DHT22;25629;51.444;-2.606;2023-01-08T00:08:05;9.20;99.90
39951;DHT22;25629;51.444;-2.606;2023-01-08T00:10:33;9.30;99.90
39951;DHT22;25629;51.444;-2.606;2023-01-08T00:12:59;9.30;99.90
39951;DHT22;25629;51.444;-2.606;2023-01-08T00:15:25;9.30;99.90
39951;DHT22;25629;51.444;-2.606;2023-01-08T00:17:50;9.30;99.90
39951;DHT22;25629;51.444;-2.606;2023-01-08T00:20:16;9.30;99.90
39951;DHT22;25629;51.444;-2.606;2023-01-08T00:22:42;9.40;99.90
39951;DHT22;25629;51.444;-2.606;2023-01-08T00:25:07;9.30;99.90
39951;DHT22;25629;51.444;-2.606;2023-01-08T00:27:33;9.30;99.90
39951;DHT22;25629;51.444;-2.606;2023-01-08T00:29:59;9.30;99.90
39951;DHT22;25629;51.444;-2.606;2023-01-08T00:32:25;9.20;99.90
39951;DHT22;25629;51.444;-2.606;2023-01-08T00:34:50;9.20;99.90
39951;DHT22;25629;51.444;-2.606;2023-01-08T00:37:19;9.20;99.90
39951;DHT22;25629;51.444;-2.606;2023-01-08T00:39:45;9.20;99.90
39951;DHT22;25629;51.444;-2.606;2023-01-08T00:42:11;9.30;99.90
39951;DHT22;25629;51.444;-2.606;2023-01-08T00:44:37;9.30;99.90
39951;DHT22;25629;51.444;-2.606;2023-01-08T00:47:03;9.30;99.90
39951;DHT22;25629;51.444;-2.606;2023-01-08T00:49:29;9.30;99.90
39951;DHT22;25629;51.444;-2.606;2023-01-08T00:51:55;9.30;99.90
39951;DHT22;25629;51.444;-2.606;2023-01-08T00:54:21;9.30;99.90
39951;DHT22;25629;51.444;-2.606;2023-01-08T00:56:46;9.30;99.90
39951;DHT22;25629;51.444;-2.606;2023-01-08T00:59:12;9.20;99.90
39951;DHT22;25629;51.444;-2.606;2023-01-08T01:01:38;9.20;99.90
39951;DHT22;25629;51.444;-2.606;2023-01-08T01:04:04;9.30;99.90
39951;DHT22;25629;51.444;-2.606;2023-01-08T01:06:30;9.30;99.90
39951;DHT22;25629;51.444;-2.606;2023-01-08T01:08:56;9.30;99.90
39951;DHT22;25629;51.444;-2.606;2023-01-08T01:11:26;9.30;99.90
39951;DHT22;25629;51.444;-2.606;2023-01-08T01:13:54;9.30;99.90
39951;DHT22;25629;51.444;-2.606;2023-01-08T01:16:21;9.30;99.90
39951;DHT22;25629;51.444;-2.606;2023-01-08T01:18:47;9.30;99.90
39951;DHT22;25629;51.444;-2.606;2023-01-08T01:23:45;9.30;99.90
39951;DHT22;25629;51.444;-2.606;2023-01-08T01:26:18;9.30;99.90
39951;DHT22;25629;51.444;-2.606;2023-01-08T01:28:46;9.30;99.90
39951;DHT22;25629;51.444;-2.606;2023-01-08T01:31:13;9.30;99.90
39951;DHT22;25629;51.444;-2.606;2023-01-08T01:33:39;9.30;99.90
39951;DHT22;25629;51.444;-2.606;2023-01-08T01:36:05;9.30;99.90
39951;DHT22;25629;51.444;-2.606;2023-01-08T01:38:31;9.30;99.90
39951;DHT22;25629;51.444;-2.606;2023-01-08T01:40:57;9.30;99.90
39951;DHT22;25629;51.444;-2.606;2023-01-08T01:43:36;9.30;99.90
39951;DHT22;25629;51.444;-2.606;2023-01-08T01:46:05;9.30;99.90
39951;DHT22;25629;51.444;-2.606;2023-01-08T01:48:31;9.20;99.90
39951;DHT22;25629;51.444;-2.606;2023-01-08T01:50:57;9.20;99.90
39951;DHT22;25629;51.444;-2.606;2023-01-08T01:53:26;9.10;99.90
39951;DHT22;25629;51.444;-2.606;2023-01-08T01:55:54;9.10;99.90
39951;DHT22;25629;51.444;-2.606;2023-01-08T01:58:29;9.00;99.90
39951;DHT22;25629;51.444;-2.606;2023-01-08T02:00:57;9.00;99.90
39951;DHT22;25629;51.444;-2.606;2023-01-08T02:03:28;9.00;99.90
39951;DHT22;25629;51.444;-2.606;2023-01-08T02:05:59;9.00;99.90
39951;DHT22;25629;51.444;-2.606;2023-01-08T02:11:10;9.00;99.90
39951;DHT22;25629;51.444;-2.606;2023-01-08T02:13:39;9.00;99.90
39951;DHT22;25629;51.444;-2.606;2023-01-08T02:18:55;9.00;99.90
39951;DHT22;25629;51.444;-2.606;2023-01-08T02:26:29;8.90;99.90
39951;DHT22;25629;51.444;-2.606;2023-01-08T02:29:05;8.90;99.90
39951;DHT22;25629;51.444;-2.606;2023-01-08T02:31:32;8.90;99.90
39951;DHT22;25629;51.444;-2.606;2023-01-08T02:33:57;8.90;99.90
39951;DHT22;25629;51.444;-2.606;2023-01-08T02:36:45;8.90;99.90
39951;DHT22;25629;51.444;-2.606;2023-01-08T02:39:28;9.00;99.90
39951;DHT22;25629;51.444;-2.606;2023-01-08T02:42:15;8.90;99.90
39951;DHT22;25629;51.444;-2.606;2023-01-08T02:47:45;8.90;99.90
39951;DHT22;25629;51.444;-2.606;2023-01-08T02:50:22;8.80;99.90
39951;DHT22;25629;51.444;-2.606;2023-01-08T02:52:57;8.80;99.90
39951;DHT22;25629;51.444;-2.606;2023-01-08T02:55:26;8.80;99.90
39951;DHT22;25629;51.444;-2.606;2023-01-08T02:57:53;8.70;99.90
39951;DHT22;25629;51.444;-2.606;2023-01-08T03:00:19;8.80;99.90
39951;DHT22;25629;51.444;-2.606;2023-01-08T03:02:45;8.80;99.90
39951;DHT22;25629;51.444;-2.606;2023-01-08T03:05:21;8.70;99.90
39951;DHT22;25629;51.444;-2.606;2023-01-08T03:07:48;8.70;99.90
39951;DHT22;25629;51.444;-2.606;2023-01-08T03:10:14;8.80;99.90
39951;DHT22;25629;51.444;-2.606;2023-01-08T03:15:08;8.70;99.90
39951;DHT22;25629;51.444;-2.606;2023-01-08T03:17:47;8.70;99.90
39951;DHT22;25629;51.444;-2.606;2023-01-08T03:20:19;8.70;99.90
39951;DHT22;25629;51.444;-2.606;2023-01-08T03:22:48;8.70;99.90
39951;DHT22;25629;51.444;-2.606;2023-01-08T03:25:16;8.60;99.90
39951;DHT22;25629;51.444;-2.606;2023-01-08T03:27:47;8.60;99.90
39951;DHT22;25629;51.444;-2.606;2023-01-08T03:30:16;8.70;99.90
39951;DHT22;25629;51.444;-2.606;2023-01-08T03:32:43;8.60;99.90
39951;DHT22;25629;51.444;-2.606;2023-01-08T03:35:12;8.60;99.90
39951;DHT22;25629;51.444;-2.606;2023-01-08T03:37:42;8.60;99.90
39951;DHT22;25629;51.444;-2.606;2023-01-08T03:40:20;8.50;99.90
39951;DHT22;25629;51.444;-2.606;2023-01-08T03:42:47;8.50;99.90
39951;DHT22;25629;51.444;-2.606;2023-01-08T03:45:13;8.50;99.90
39951;DHT22;25629;51.444;-2.606;2023-01-08T03:47:39;8.50;99.90
39951;DHT22;25629;51.444;-2.606;2023-01-08T03:50:10;8.40;99.90
39951;DHT22;25629;51.444;-2.606;2023-01-08T03:52:37;8.40;99.90
39951;DHT22;25629;51.444;-2.606;2023-01-08T03:55:03;8.40;99.90
39951;DHT22;25629;51.444;-2.606;2023-01-08T03:57:28;8.40;99.90
39951;DHT22;25629;51.444;-2.606;2023-01-08T03:59:54;8.40;99.90
39951;DHT22;25629;51.444;-2.606;2023-01-08T04:02:20;8.50;99.90
39951;DHT22;25629;51.444;-2.606;2023-01-08T04:04:46;8.50;99.90
39951;DHT22;25629;51.444;-2.606;2023-01-08T04:07:12;8.50;99.90
39951;DHT22;25629;51.444;-2.606;2023-01-08T04:09:38;8.50;99.90
39951;DHT22;25629;51.444;-2.606;2023-01-08T04:12:04;8.50;99.90
39951;DHT22;25629;51.444;-2.606;2023-01-08T04:14:30;8.40;99.90
39951;DHT22;25629;51.444;-2.606;2023-01-08T04:16:55;8.40;99.90
39951;DHT22;25629;51.444;-2.606;2023-01-08T04:19:21;8.40;99.90
39951;DHT22;25629;51.444;-2.606;2023-01-08T04:21:49;8.40;99.90
39951;DHT22;25629;51.444;-2.606;2023-01-08T04:24:16;8.40;99.90
39951;DHT22;25629;51.444;-2.606;2023-01-08T04:26:41;8.50;99.90
39951;DHT22;25629;51.444;-2.606;2023-01-08T04:29:07;8.50;99.90
39951;DHT22;25629;51.444;-2.606;2023-01-08T04:31:33;8.60;99.90
39951;DHT22;25629;51.444;-2.606;2023-01-08T04:33:58;8.60;99.90
39951;DHT22;25629;51.444;-2.606;2023-01-08T04:36:24;8.60;99.90
39951;DHT22;25629;51.444;-2.606;2023-01-08T04:38:50;8.60;99.90
39951;DHT22;25629;51.444;-2.606;2023-01-08T04:41:16;8.60;99.90
39951;DHT22;25629;51.444;-2.606;2023-01-08T04:43:43;8.70;99.90
39951;DHT22;25629;51.444;-2.606;2023-01-08T04:46:08;8.60;99.90
39951;DHT22;25629;51.444;-2.606;2023-01-08T04:48:34;8.60;99.90
39951;DHT22;25629;51.444;-2.606;2023-01-08T04:51:01;8.60;99.90
39951;DHT22;25629;51.444;-2.606;2023-01-08T04:53:27;8.60;99.90
39951;DHT22;25629;51.444;-2.606;2023-01-08T04:55:53;8.50;99.90
39951;DHT22;25629;51.444;-2.606;2023-01-08T04:58:19;8.40;99.90
39951;DHT22;25629;51.444;-2.606;2023-01-08T05:00:46;8.30;99.90
39951;DHT22;25629;51.444;-2.606;2023-01-08T05:03:11;8.30;99.90
39951;DHT22;25629;51.444;-2.606;2023-01-08T05:05:37;8.20;99.90
39951;DHT22;25629;51.444;-2.606;2023-01-08T05:08:03;8.10;99.90
39951;DHT22;25629;51.444;-2.606;2023-01-08T05:10:29;8.20;99.90
39951;DHT22;25629;51.444;-2.606;2023-01-08T05:12:59;8.10;99.90
39951;DHT22;25629;51.444;-2.606;2023-01-08T05:15:25;8.00;99.90
39951;DHT22;25629;51.444;-2.606;2023-01-08T05:17:59;8.00;99.90
39951;DHT22;25629;51.444;-2.606;2023-01-08T05:20:25;8.00;99.90
39951;DHT22;25629;51.444;-2.606;2023-01-08T05:22:51;7.90;99.90
39951;DHT22;25629;51.444;-2.606;2023-01-08T05:25:16;7.90;99.90
39951;DHT22;25629;51.444;-2.606;2023-01-08T05:27:42;7.90;99.90
39951;DHT22;25629;51.444;-2.606;2023-01-08T05:30:08;7.90;99.90
39951;DHT22;25629;51.444;-2.606;2023-01-08T05:32:34;7.90;99.90
39951;DHT22;25629;51.444;-2.606;2023-01-08T05:35:00;7.90;99.90
39951;DHT22;25629;51.444;-2.606;2023-01-08T05:37:25;7.80;99.90
39951;DHT22;25629;51.444;-2.606;2023-01-08T05:39:51;7.80;99.90
39951;DHT22;25629;51.444;-2.606;2023-01-08T05:42:17;7.80;99.90
39951;DHT22;25629;51.444;-2.606;2023-01-08T05:44:42;7.80;99.90
39951;DHT22;25629;51.444;-2.606;2023-01-08T05:47:08;7.80;99.90
39951;DHT22;25629;51.444;-2.606;2023-01-08T05:49:34;7.80;99.90
39951;DHT22;25629;51.444;-2.606;2023-01-08T05:52:00;7.70;99.90
39951;DHT22;25629;51.444;-2.606;2023-01-08T05:54:26;7.70;99.90
39951;DHT22;25629;51.444;-2.606;2023-01-08T05:56:52;7.70;99.90
39951;DHT22;25629;51.444;-2.606;2023-01-08T05:59:17;7.70;99.90
39951;DHT22;25629;51.444;-2.606;2023-01-08T06:01:43;7.70;99.90
39951;DHT22;25629;51.444;-2.606;2023-01-08T06:04:09;7.70;99.90
39951;DHT22;25629;51.444;-2.606;2023-01-08T06:06:34;7.70;99.90
39951;DHT22;25629;51.444;-2.606;2023-01-08T06:09:00;7.70;99.90
39951;DHT22;25629;51.444;-2.606;2023-01-08T06:11:26;7.70;99.90
39951;DHT22;25629;51.444;-2.606;2023-01-08T06:13:51;7.70;99.90
39951;DHT22;25629;51.444;-2.606;2023-01-08T06:16:17;7.60;99.90
39951;DHT22;25629;51.444;-2.606;2023-01-08T06:18:45;7.60;99.90
39951;DHT22;25629;51.444;-2.606;2023-01-08T06:21:11;7.60;99.90
39951;DHT22;25629;51.444;-2.606;2023-01-08T06:23:38;7.60;99.90
39951;DHT22;25629;51.444;-2.606;2023-01-08T06:26:04;7.60;99.90
39951;DHT22;25629;51.444;-2.606;2023-01-08T06:28:30;7.60;99.90
39951;DHT22;25629;51.444;-2.606;2023-01-08T06:30:57;7.60;99.90
39951;DHT22;25629;51.444;-2.606;2023-01-08T06:33:23;7.60;99.90
39951;DHT22;25629;51.444;-2.606;2023-01-08T06:35:49;7.60;99.90
39951;DHT22;25629;51.444;-2.606;2023-01-08T06:38:15;7.60;99.90
39951;DHT22;25629;51.444;-2.606;2023-01-08T06:40:44;7.50;99.90
39951;DHT22;25629;51.444;-2.606;2023-01-08T06:43:10;7.50;99.90
39951;DHT22;25629;51.444;-2.606;2023-01-08T06:45:36;7.50;99.90
39951;DHT22;25629;51.444;-2.606;2023-01-08T06:48:03;7.40;99.90
39951;DHT22;25629;51.444;-2.606;2023-01-08T06:50:29;7.40;99.90
39951;DHT22;25629;51.444;-2.606;2023-01-08T06:52:55;7.40;99.90
39951;DHT22;25629;51.444;-2.606;2023-01-08T06:55:22;7.40;99.90
39951;DHT22;25629;51.444;-2.606;2023-01-08T06:57:51;7.30;99.90
39951;DHT22;25629;51.444;-2.606;2023-01-08T07:00:17;7.20;99.90
39951;DHT22;25629;51.444;-2.606;2023-01-08T07:02:43;7.10;99.90
39951;DHT22;25629;51.444;-2.606;2023-01-08T07:05:08;7.10;99.90
39951;DHT22;25629;51.444;-2.606;2023-01-08T07:07:35;7.00;99.90
39951;DHT22;25629;51.444;-2.606;2023-01-08T07:10:01;7.00;99.90
39951;DHT22;25629;51.444;-2.606;2023-01-08T07:12:26;6.90;99.90
39951;DHT22;25629;51.444;-2.606;2023-01-08T07:14:52;7.00;99.90
39951;DHT22;25629;51.444;-2.606;2023-01-08T07:17:18;7.00;99.90
39951;DHT22;25629;51.444;-2.606;2023-01-08T07:19:43;7.00;99.90
39951;DHT22;25629;51.444;-2.606;2023-01-08T07:22:09;7.10;99.90
39951;DHT22;25629;51.444;-2.606;2023-01-08T07:24:35;7.20;99.90
39951;DHT22;25629;51.444;-2.606;2023-01-08T07:27:00;7.30;99.90
39951;DHT22;25629;51.444;-2.606;2023-01-08T07:29:26;7.30;99.90
39951;DHT22;25629;51.444;-2.606;2023-01-08T07:31:52;7.40;99.90
39951;DHT22;25629;51.444;-2.606;2023-01-08T07:34:18;7.50;99.90
39951;DHT22;25629;51.444;-2.606;2023-01-08T07:36:43;7.50;99.90
39951;DHT22;25629;51.444;-2.606;2023-01-08T07:39:09;7.50;99.90
39951;DHT22;25629;51.444;-2.606;2023-01-08T07:41:35;7.50;99.90
39951;DHT22;25629;51.444;-2.606;2023-01-08T07:44:00;7.50;99.90
39951;DHT22;25629;51.444;-2.606;2023-01-08T07:46:26;7.50;99.90
39951;DHT22;25629;51.444;-2.606;2023-01-08T07:48:52;7.60;99.90
39951;DHT22;25629;51.444;-2.606;2023-01-08T07:51:18;7.60;99.90
39951;DHT22;25629;51.444;-2.606;2023-01-08T07:53:43;7.60;99.90
39951;DHT22;25629;51.444;-2.606;2023-01-08T07:56:09;7.70;99.90
39951;DHT22;25629;51.444;-2.606;2023-01-08T07:58:36;7.70;99.90
39951;DHT22;25629;51.444;-2.606;2023-01-08T08:01:02;7.80;99.90
39951;DHT22;25629;51.444;-2.606;2023-01-08T08:03:28;7.90;99.90
39951;DHT22;25629;51.444;-2.606;2023-01-08T08:05:54;7.90;99.90
39951;DHT22;25629;51.444;-2.606;2023-01-08T08:08:20;7.90;99.90
39951;DHT22;25629;51.444;-2.606;2023-01-08T08:10:45;8.00;99.90
39951;DHT22;25629;51.444;-2.606;2023-01-08T08:13:11;8.10;99.90
39951;DHT22;25629;51.444;-2.606;2023-01-08T08:15:38;8.10;99.90
39951;DHT22;25629;51.444;-2.606;2023-01-08T08:18:05;8.10;99.90
39951;DHT22;25629;51.444;-2.606;2023-01-08T08:20:31;8.20;99.90
39951;DHT22;25629;51.444;-2.606;2023-01-08T08:23:06;8.20;99.90
39951;DHT22;25629;51.444;-2.606;2023-01-08T08:25:32;8.20;99.90
39951;DHT22;25629;51.444;-2.606;2023-01-08T08:27:58;8.30;99.90
39951;DHT22;25629;51.444;-2.606;2023-01-08T08:30:25;8.30;99.90
39951;DHT22;25629;51.444;-2.606;2023-01-08T08:32:52;8.30;99.90
39951;DHT22;25629;51.444;-2.606;2023-01-08T08:35:18;8.40;99.90
39951;DHT22;25629;51.444;-2.606;2023-01-08T08:37:44;8.40;99.90
39951;DHT22;25629;51.444;-2.606;2023-01-08T08:40:10;8.50;99.90
39951;DHT22;25629;51.444;-2.606;2023-01-08T08:42:36;8.50;99.90
39951;DHT22;25629;51.444;-2.606;2023-01-08T08:45:01;8.60;99.90
39951;DHT22;25629;51.444;-2.606;2023-01-08T08:47:27;8.60;99.90
39951;DHT22;25629;51.444;-2.606;2023-01-08T08:49:53;8.70;99.90
39951;DHT22;25629;51.444;-2.606;2023-01-08T08:52:18;8.70;99.90
39951;DHT22;25629;51.444;-2.606;2023-01-08T08:54:44;8.80;99.90
39951;DHT22;25629;51.444;-2.606;2023-01-08T08:57:10;8.80;99.90
39951;DHT22;25629;51.444;-2.606;2023-01-08T08:59:36;8.90;99.90
39951;DHT22;25629;51.444;-2.606;2023-01-08T09:02:02;8.90;99.90
39951;DHT22;25629;51.444;-2.606;2023-01-08T09:04:30;8.90;99.90
39951;DHT22;25629;51.444;-2.606;2023-01-08T09:06:56;8.90;99.90
39951;DHT22;25629;51.444;-2.606;2023-01-08T09:09:21;9.00;99.90
39951;DHT22;25629;51.444;-2.606;2023-01-08T09:11:47;9.10;99.90
39951;DHT22;25629;51.444;-2.606;2023-01-08T09:14:13;9.10;99.90
39951;DHT22;25629;51.444;-2.606;2023-01-08T09:16:38;9.20;99.90
39951;DHT22;25629;51.444;-2.606;2023-01-08T09:19:04;9.20;99.90
39951;DHT22;25629;51.444;-2.606;2023-01-08T09:21:31;9.20;99.90
39951;DHT22;25629;51.444;-2.606;2023-01-08T09:23:57;9.20;99.90
39951;DHT22;25629;51.444;-2.606;2023-01-08T09:26:22;9.30;99.90
39951;DHT22;25629;51.444;-2.606;2023-01-08T09:28:48;9.30;99.90
39951;DHT22;25629;51.444;-2.606;2023-01-08T09:31:14;9.40;99.90
39951;DHT22;25629;51.444;-2.606;2023-01-08T09:33:40;9.40;99.90
39951;DHT22;25629;51.444;-2.606;2023-01-08T09:36:09;9.40;99.90
39951;DHT22;25629;51.444;-2.606;2023-01-08T09:38:35;9.40;99.90
39951;DHT22;25629;51.444;-2.606;2023-01-08T09:41:08;9.50;99.90
39951;DHT22;25629;51.444;-2.606;2023-01-08T09:43:37;9.50;99.90
39951;DHT22;25629;51.444;-2.606;2023-01-08T09:46:05;9.50;99.90
39951;DHT22;25629;51.444;-2.606;2023-01-08T09:48:35;9.50;99.90
39951;DHT22;25629;51.444;-2.606;2023-01-08T09:51:01;9.60;99.90
39951;DHT22;25629;51.444;-2.606;2023-01-08T09:53:27;9.70;99.90
39951;DHT22;25629;51.444;-2.606;2023-01-08T09:56:00;9.70;99.90
39951;DHT22;25629;51.444;-2.606;2023-01-08T09:58:40;9.80;99.90
39951;DHT22;25629;51.444;-2.606;2023-01-08T10:01:13;9.90;99.90
39951;DHT22;25629;51.444;-2.606;2023-01-08T10:03:59;10.00;99.90
39951;DHT22;25629;51.444;-2.606;2023-01-08T10:06:27;10.10;99.90
39951;DHT22;25629;51.444;-2.606;2023-01-08T10:08:53;10.00;99.90
39951;DHT22;25629;51.444;-2.606;2023-01-08T10:11:19;9.90;99.90
39951;DHT22;25629;51.444;-2.606;2023-01-08T10:13:51;9.70;99.90
39951;DHT22;25629;51.444;-2.606;2023-01-08T10:18:51;9.30;99.90
39951;DHT22;25629;51.444;-2.606;2023-01-08T10:21:17;9.20;99.90
39951;DHT22;25629;51.444;-2.606;2023-01-08T10:23:51;9.20;99.90
39951;DHT22;25629;51.444;-2.606;2023-01-08T10:26:31;9.10;99.90
39951;DHT22;25629;51.444;-2.606;2023-01-08T10:29:17;9.20;99.90
39951;DHT22;25629;51.444;-2.606;2023-01-08T10:32:07;9.20;99.90
39951;DHT22;25629;51.444;-2.606;2023-01-08T10:34:50;9.20;99.90
39951;DHT22;25629;51.444;-2.606;2023-01-08T10:37:28;9.30;99.90
39951;DHT22;25629;51.444;-2.606;2023-01-08T10:40:06;9.50;99.90
39951;DHT22;25629;51.444;-2.606;2023-01-08T10:42:34;9.70;99.90
39951;DHT22;25629;51.444;-2.606;2023-01-08T10:45:06;9.90;99.90
39951;DHT22;25629;51.444;-2.606;2023-01-08T10:47:36;10.00;99.90
39951;DHT22;25629;51.444;-2.606;2023-01-08T10:50:05;9.90;99.90
39951;DHT22;25629;51.444;-2.606;2023-01-08T10:52:38;9.80;99.90
39951;DHT22;25629;51.444;-2.606;2023-01-08T10:55:22;9.70;99.90
39951;DHT22;25629;51.444;-2.606;2023-01-08T10:58:02;9.60;99.90
39951;DHT22;25629;51.444;-2.606;2023-01-08T11:00:33;9.40;99.90
39951;DHT22;25629;51.444;-2.606;2023-01-08T11:03:01;9.30;99.90
39951;DHT22;25629;51.444;-2.606;2023-01-08T11:05:36;9.20;99.90
39951;DHT22;25629;51.444;-2.606;2023-01-08T11:08:05;9.00;99.90
39951;DHT22;25629;51.444;-2.606;2023-01-08T11:10:33;8.90;99.90
39951;DHT22;25629;51.444;-2.606;2023-01-08T11:13:05;8.90;99.90
39951;DHT22;25629;51.444;-2.606;2023-01-08T11:15:41;8.80;99.90
39951;DHT22;25629;51.444;-2.606;2023-01-08T11:18:18;8.80;99.90
39951;DHT22;25629;51.444;-2.606;2023-01-08T11:20:45;8.70;99.90
39951;DHT22;25629;51.444;-2.606;2023-01-08T11:23:23;8.70;99.90
39951;DHT22;25629;51.444;-2.606;2023-01-08T11:26:11;8.70;99.90
39951;DHT22;25629;51.444;-2.606;2023-01-08T11:31:48;8.80;99.90
39951;DHT22;25629;51.444;-2.606;2023-01-08T11:37:01;8.70;99.90
39951;DHT22;25629;51.444;-2.606;2023-01-08T11:39:28;8.70;99.90
39951;DHT22;25629;51.444;-2.606;2023-01-08T11:45:08;8.70;99.90
39951;DHT22;25629;51.444;-2.606;2023-01-08T11:53:32;9.00;99.90
39951;DHT22;25629;51.444;-2.606;2023-01-08T11:59:05;9.20;99.90
39951;DHT22;25629;51.444;-2.606;2023-01-08T12:05:04;9.40;99.90
39951;DHT22;25629;51.444;-2.606;2023-01-08T12:07:54;9.40;99.90
39951;DHT22;25629;51.444;-2.606;2023-01-08T12:15:57;9.40;99.90
39951;DHT22;25629;51.444;-2.606;2023-01-08T12:24:02;9.40;99.90
39951;DHT22;25629;51.444;-2.606;2023-01-08T12:32:21;9.50;99.90
39951;DHT22;25629;51.444;-2.606;2023-01-08T12:37:30;9.50;99.90
39951;DHT22;25629;51.444;-2.606;2023-01-08T12:40:20;9.50;99.90
39951;DHT22;25629;51.444;-2.606;2023-01-08T12:42:47;9.60;99.90
39951;DHT22;25629;51.444;-2.606;2023-01-08T12:45:19;9.70;99.90
39951;DHT22;25629;51.444;-2.606;2023-01-08T12:47:52;9.70;99.90
39951;DHT22;25629;51.444;-2.606;2023-01-08T12:58:36;9.60;99.90
39951;DHT22;25629;51.444;-2.606;2023-01-08T13:03:57;9.60;99.90
39951;DHT22;25629;51.444;-2.606;2023-01-08T13:06:23;9.70;99.90
39951;DHT22;25629;51.444;-2.606;2023-01-08T13:08:52;9.70;99.90
39951;DHT22;25629;51.444;-2.606;2023-01-08T13:11:28;9.80;99.90
39951;DHT22;25629;51.444;-2.606;2023-01-08T13:16:38;9.90;99.90
39951;DHT22;25629;51.444;-2.606;2023-01-08T13:19:05;9.80;99.90
39951;DHT22;25629;51.444;-2.606;2023-01-08T13:21:49;9.70;99.90
39951;DHT22;25629;51.444;-2.606;2023-01-08T13:24:28;9.70;99.90
39951;DHT22;25629;51.444;-2.606;2023-01-08T13:26:56;9.50;99.90
39951;DHT22;25629;51.444;-2.606;2023-01-08T13:29:23;9.50;99.90
39951;DHT22;25629;51.444;-2.606;2023-01-08T13:31:49;9.40;99.90
39951;DHT22;25629;51.444;-2.606;2023-01-08T13:34:36;9.40;99.90
39951;DHT22;25629;51.444;-2.606;2023-01-08T13:37:04;9.40;99.90
39951;DHT22;25629;51.444;-2.606;2023-01-08T13:39:37;9.40;99.90
39951;DHT22;25629;51.444;-2.606;2023-01-08T13:42:23;9.30;99.90
39951;DHT22;25629;51.444;-2.606;2023-01-08T13:44:51;9.30;99.90
39951;DHT22;25629;51.444;-2.606;2023-01-08T13:47:34;9.20;99.90
39951;DHT22;25629;51.444;-2.606;2023-01-08T13:50:04;9.30;99.90
39951;DHT22;25629;51.444;-2.606;2023-01-08T13:52:42;9.30;99.90
39951;DHT22;25629;51.444;-2.606;2023-01-08T13:55:33;9.20;99.90
39951;DHT22;25629;51.444;-2.606;2023-01-08T13:58:15;9.20;99.90
39951;DHT22;25629;51.444;-2.606;2023-01-08T14:00:43;9.10;99.90
39951;DHT22;25629;51.444;-2.606;2023-01-08T14:03:33;9.00;99.90
39951;DHT22;25629;51.444;-2.606;2023-01-08T14:08:35;8.90;99.90
39951;DHT22;25629;51.444;-2.606;2023-01-08T14:11:02;8.80;99.90
39951;DHT22;25629;51.444;-2.606;2023-01-08T14:13:30;8.80;99.90
39951;DHT22;25629;51.444;-2.606;2023-01-08T14:16:02;8.80;99.90
39951;DHT22;25629;51.444;-2.606;2023-01-08T14:18:29;8.70;99.90
39951;DHT22;25629;51.444;-2.606;2023-01-08T14:20:54;8.70;99.90
39951;DHT22;25629;51.444;-2.606;2023-01-08T14:23:25;8.60;99.90
39951;DHT22;25629;51.444;-2.606;2023-01-08T14:25:52;8.60;99.90
39951;DHT22;25629;51.444;-2.606;2023-01-08T14:28:20;8.50;99.90
39951;DHT22;25629;51.444;-2.606;2023-01-08T14:30:48;8.50;99.90
39951;DHT22;25629;51.444;-2.606;2023-01-08T14:33:14;8.60;99.90
39951;DHT22;25629;51.444;-2.606;2023-01-08T14:35:40;8.60;99.90
39951;DHT22;25629;51.444;-2.606;2023-01-08T14:38:12;8.60;99.90
39951;DHT22;25629;51.444;-2.606;2023-01-08T14:40:44;8.50;99.90
39951;DHT22;25629;51.444;-2.606;2023-01-08T14:43:15;8.50;99.90
39951;DHT22;25629;51.444;-2.606;2023-01-08T14:45:51;8.40;99.90
39951;DHT22;25629;51.444;-2.606;2023-01-08T14:48:33;8.30;99.90
39951;DHT22;25629;51.444;-2.606;2023-01-08T14:51:07;8.20;99.90
39951;DHT22;25629;51.444;-2.606;2023-01-08T14:53:46;8.10;99.90
39951;DHT22;25629;51.444;-2.606;2023-01-08T14:56:16;8.00;99.90
39951;DHT22;25629;51.444;-2.606;2023-01-08T14:58:44;7.50;99.90
39951;DHT22;25629;51.444;-2.606;2023-01-08T15:01:28;7.10;99.90
39951;DHT22;25629;51.444;-2.606;2023-01-08T15:06:32;6.70;99.90
39951;DHT22;25629;51.444;-2.606;2023-01-08T15:08:58;6.70;99.90
39951;DHT22;25629;51.444;-2.606;2023-01-08T15:11:31;6.80;99.90
39951;DHT22;25629;51.444;-2.606;2023-01-08T15:13:59;6.70;99.90
39951;DHT22;25629;51.444;-2.606;2023-01-08T15:16:34;6.70;99.90
39951;DHT22;25629;51.444;-2.606;2023-01-08T15:19:17;6.80;99.90
39951;DHT22;25629;51.444;-2.606;2023-01-08T15:21:57;6.90;99.90
39951;DHT22;25629;51.444;-2.606;2023-01-08T15:26:55;7.20;99.90
39951;DHT22;25629;51.444;-2.606;2023-01-08T15:29:30;7.20;99.90
39951;DHT22;25629;51.444;-2.606;2023-01-08T15:32:20;7.10;99.90
39951;DHT22;25629;51.444;-2.606;2023-01-08T15:34:46;7.00;99.90
39951;DHT22;25629;51.444;-2.606;2023-01-08T15:37:13;7.10;99.90
39951;DHT22;25629;51.444;-2.606;2023-01-08T15:39:40;7.10;99.90
39951;DHT22;25629;51.444;-2.606;2023-01-08T15:42:28;7.10;99.90
39951;DHT22;25629;51.444;-2.606;2023-01-08T15:45:16;7.00;99.90
39951;DHT22;25629;51.444;-2.606;2023-01-08T15:47:42;7.00;99.90
39951;DHT22;25629;51.444;-2.606;2023-01-08T15:50:08;6.90;99.90
39951;DHT22;25629;51.444;-2.606;2023-01-08T15:52:38;6.90;99.90
39951;DHT22;25629;51.444;-2.606;2023-01-08T15:55:05;6.90;99.90
39951;DHT22;25629;51.444;-2.606;2023-01-08T15:57:31;6.80;99.90
39951;DHT22;25629;51.444;-2.606;2023-01-08T15:59:57;6.80;99.90
39951;DHT22;25629;51.444;-2.606;2023-01-08T16:02:24;6.70;99.90
39951;DHT22;25629;51.444;-2.606;2023-01-08T16:04:54;6.70;99.90
39951;DHT22;25629;51.444;-2.606;2023-01-08T16:07:20;6.70;99.90
39951;DHT22;25629;51.444;-2.606;2023-01-08T16:09:47;6.60;99.90
39951;DHT22;25629;51.444;-2.606;2023-01-08T16:12:13;6.60;99.90
39951;DHT22;25629;51.444;-2.606;2023-01-08T16:14:38;6.60;99.90
39951;DHT22;25629;51.444;-2.606;2023-01-08T16:17:05;6.60;99.90
39951;DHT22;25629;51.444;-2.606;2023-01-08T16:19:31;6.60;99.90
39951;DHT22;25629;51.444;-2.606;2023-01-08T16:21:57;6.60;99.90
39951;DHT22;25629;51.444;-2.606;2023-01-08T16:24:24;6.60;99.90
39951;DHT22;25629;51.444;-2.606;2023-01-08T16:26:50;6.60;99.90
39951;DHT22;25629;51.444;-2.606;2023-01-08T16:29:16;6.60;99.90
39951;DHT22;25629;51.444;-2.606;2023-01-08T16:31:46;6.60;99.90
39951;DHT22;25629;51.444;-2.606;2023-01-08T16:34:13;6.60;99.90
39951;DHT22;25629;51.444;-2.606;2023-01-08T16:36:39;6.60;99.90
39951;DHT22;25629;51.444;-2.606;2023-01-08T16:39:06;6.60;99.90
39951;DHT22;25629;51.444;-2.606;2023-01-08T16:41:32;6.50;99.90
39951;DHT22;25629;51.444;-2.606;2023-01-08T16:43:57;6.50;99.90
39951;DHT22;25629;51.444;-2.606;2023-01-08T16:46:23;6.50;99.90
39951;DHT22;25629;51.444;-2.606;2023-01-08T16:48:49;6.50;99.90
39951;DHT22;25629;51.444;-2.606;2023-01-08T16:51:15;6.50;99.90
39951;DHT22;25629;51.444;-2.606;2023-01-08T16:53:41;6.50;99.90
39951;DHT22;25629;51.444;-2.606;2023-01-08T16:56:08;6.50;99.90
39951;DHT22;25629;51.444;-2.606;2023-01-08T16:58:34;6.50;99.90
39951;DHT22;25629;51.444;-2.606;2023-01-08T17:01:05;6.50;99.90
39951;DHT22;25629;51.444;-2.606;2023-01-08T17:03:31;6.50;99.90